»·PEaware :: ASA52 KBOI-KSLC

ASA52 :: KBOI-KSLC

FLIGHT INFORMATION

Flight Status: Arrived
Operator:
Alaska Airlines
More flights by this operator :: More flights under this callsign
Pilot: Steve F. (26981)
Aircraft: BOEING 737-800
(B738)
More flights by this aircraft type
Origin: KBOI Boise Air Terminal/Gowen
United States
Destination: KSLC Salt Lake City Intl
United States
More flights between these airports :: More routes between these airports
Route: BOI3 ROARR BYI SKEES5
File this flight plan on PilotEdge
Remarks:
Altitude:
(Current/Filed)
29,000ft
Speed:
(Current/Filed)
430kts
Departed: 18-Sep-20 04:58 PM
Arrived: 18-Sep-20 05:41 PM
Distance/Time
Traveled:
252nm/0:43
Distance/Time
To Go:
Arrived

Flight Plot

Page will automatically refresh every two minutes.

Flight plan parsing failed; only flown route is shown


Map Options




Map Legend


Flown Route
Filed Route
Departure Airport
Arrival Airport
Navaid (VOR, NDB)
Fix

Horizontal Profiles

Position Reports

Time Latitude Longitude Heading Altitude Ground
Speed
18-Sep-20 16:29 43.566942 -116.219639 24 2879ft 0kts
18-Sep-20 16:30 43.566942 -116.219639 24 2879ft 0kts
18-Sep-20 16:31 43.566942 -116.219639 24 2879ft 0kts
18-Sep-20 16:32 43.566942 -116.219639 24 2879ft 0kts
18-Sep-20 16:33 43.566942 -116.219639 24 2879ft 0kts
18-Sep-20 16:34 43.566942 -116.219639 24 2879ft 0kts
18-Sep-20 16:35 43.566942 -116.219639 24 2879ft 0kts
18-Sep-20 16:36 43.566942 -116.219639 24 2879ft 0kts
18-Sep-20 16:37 43.566942 -116.219639 24 2879ft 0kts
18-Sep-20 16:38 43.566942 -116.219639 24 2879ft 0kts
18-Sep-20 16:39 43.566942 -116.219639 24 2879ft 0kts
18-Sep-20 16:40 43.566942 -116.219639 24 2879ft 0kts
18-Sep-20 16:41 43.566942 -116.219639 24 2879ft 0kts
18-Sep-20 16:42 43.566942 -116.219639 24 2879ft 0kts
18-Sep-20 16:43 43.566942 -116.219639 24 2879ft 0kts
18-Sep-20 16:45 43.566942 -116.219639 24 2879ft 0kts
18-Sep-20 16:46 43.566942 -116.219639 24 2879ft 0kts
18-Sep-20 16:47 43.566942 -116.219639 24 2879ft 0kts
18-Sep-20 16:48 43.566942 -116.219639 24 2879ft 0kts
18-Sep-20 16:49 43.566942 -116.219639 24 2879ft 0kts
18-Sep-20 16:50 43.566942 -116.219639 24 2879ft 0kts
18-Sep-20 16:51 43.566418 -116.219963 24 2879ft 2kts
18-Sep-20 16:52 43.566383 -116.219985 23 2879ft 0kts
18-Sep-20 16:53 43.566384 -116.219984 23 2879ft 0kts
18-Sep-20 16:54 43.566320 -116.221055 251 2879ft 10kts
18-Sep-20 16:55 43.568486 -116.228158 294 2879ft 28kts
18-Sep-20 16:56 43.570867 -116.236047 216 2879ft 1kts
18-Sep-20 16:57 43.569604 -116.235183 113 2879ft 40kts
18-Sep-20 16:58 43.552680 -116.186885 114 4234ft 193kts
18-Sep-20 16:58 43.533178 -116.125680 113 6134ft 238kts
18-Sep-20 17:00 43.498230 -116.015199 114 9196ft 283kts
18-Sep-20 17:01 43.464646 -115.909457 115 11297ft 334kts
18-Sep-20 17:02 43.424089 -115.782330 116 13303ft 377kts
18-Sep-20 17:02 43.389208 -115.671036 117 15848ft 383kts
18-Sep-20 17:03 43.345504 -115.534818 118 18459ft 395kts
18-Sep-20 17:05 43.291333 -115.369617 122 20821ft 414kts
18-Sep-20 17:05 43.240045 -115.256056 127 22294ft 425kts
18-Sep-20 17:06 43.174923 -115.117414 127 23889ft 440kts
18-Sep-20 17:07 43.107745 -114.974499 128 25429ft 451kts
18-Sep-20 17:08 43.039735 -114.828526 128 27177ft 453kts
18-Sep-20 17:09 42.972095 -114.684672 129 29037ft 448kts
18-Sep-20 17:10 42.904883 -114.542614 129 29100ft 444kts
18-Sep-20 17:11 42.837494 -114.400893 129 29095ft 445kts
18-Sep-20 17:12 42.769949 -114.259522 129 29090ft 446kts
18-Sep-20 17:13 42.702182 -114.117658 129 29088ft 446kts
18-Sep-20 17:14 42.633995 -113.976655 128 29078ft 448kts
18-Sep-20 17:15 42.561068 -113.839810 138 29063ft 442kts
18-Sep-20 17:16 42.473906 -113.722721 140 29068ft 441kts
18-Sep-20 17:17 42.386318 -113.605990 140 29069ft 441kts
18-Sep-20 17:18 42.298700 -113.489691 140 29069ft 441kts
18-Sep-20 17:19 42.210897 -113.373617 140 29068ft 442kts
18-Sep-20 17:20 42.122729 -113.257664 140 28790ft 444kts
18-Sep-20 17:21 42.033345 -113.140492 140 26301ft 454kts
18-Sep-20 17:22 41.943117 -113.021927 140 23803ft 450kts
18-Sep-20 17:23 41.854957 -112.906509 140 21299ft 432kts
18-Sep-20 17:24 41.770613 -112.797190 140 18813ft 413kts
18-Sep-20 17:25 41.690009 -112.693137 140 17007ft 390kts
18-Sep-20 17:26 41.612589 -112.593321 140 16035ft 385kts
18-Sep-20 17:27 41.539285 -112.499418 142 16022ft 335kts
18-Sep-20 17:28 41.470242 -112.427928 140 15491ft 309kts
18-Sep-20 17:29 41.413085 -112.343273 136 14643ft 306kts
18-Sep-20 17:30 41.356520 -112.259557 136 13790ft 301kts
18-Sep-20 17:31 41.300480 -112.177148 136 12934ft 297kts
18-Sep-20 17:32 41.245854 -112.097551 136 11983ft 286kts
18-Sep-20 17:33 41.189544 -112.027484 162 10973ft 268kts
18-Sep-20 17:34 41.117756 -112.011859 176 9969ft 256kts
18-Sep-20 17:35 41.048743 -112.004823 176 8884ft 246kts
18-Sep-20 17:36 40.980931 -111.997021 176 7625ft 242kts
18-Sep-20 17:37 40.916035 -111.989473 175 6380ft 218kts
18-Sep-20 17:38 40.862330 -111.983294 175 5468ft 170kts
18-Sep-20 17:39 40.817443 -111.978044 173 4445ft 158kts
18-Sep-20 17:40 40.787911 -111.974574 175 4235ft 37kts
18-Sep-20 17:41 40.784871 -111.975323 206 4235ft 0kts
18-Sep-20 17:42 40.784230 -111.976296 350 4235ft 10kts
18-Sep-20 17:43 40.788042 -111.976764 354 4235ft 10kts
18-Sep-20 17:44 40.788657 -111.976843 354 4235ft 0kts
18-Sep-20 17:45 40.788716 -111.976878 325 4235ft 2kts
18-Sep-20 17:46 40.788777 -111.977793 266 4235ft 0kts
18-Sep-20 17:47 40.788777 -111.977793 266 4235ft 0kts

Navigation Log

Ident Type
Flight plan parsing failed, navigation log unavailable